Аэропорт
Ош (UCFO)

 UCFO / OSS
ЗЦ Центральная Азия
Ош (UCFO)
Ош (UCFO)
 40.60900, 72.79330  / 2927 ft

 UCFO 132240Z 1400/1424 27005MPS 3000 BR NSC TEMPO 1400/1406 0500 FZFG FU VV002 BECMG 1412/1414 17005MPS
показать схемы



2018 © VATRUS division